sensor_id;sensor_type;location;lat;lon;timestamp;temperature;humidity
55365;DHT22;41245;45.384;20.390;2022-07-19T00:00:08;512.20;128.00
55365;DHT22;41245;45.384;20.390;2022-07-19T00:02:36;512.20;128.00
55365;DHT22;41245;45.384;20.390;2022-07-19T00:05:02;512.30;128.00
55365;DHT22;41245;45.384;20.390;2022-07-19T00:07:28;512.30;128.00
55365;DHT22;41245;45.384;20.390;2022-07-19T00:09:53;512.40;128.00
55365;DHT22;41245;45.384;20.390;2022-07-19T00:12:19;512.40;128.00
55365;DHT22;41245;45.384;20.390;2022-07-19T00:14:45;512.30;128.00
55365;DHT22;41245;45.384;20.390;2022-07-19T00:17:11;512.10;128.00
55365;DHT22;41245;45.384;20.390;2022-07-19T00:19:37;512.00;128.00
55365;DHT22;41245;45.384;20.390;2022-07-19T00:22:02;512.10;128.00
55365;DHT22;41245;45.384;20.390;2022-07-19T00:24:28;512.10;128.00
55365;DHT22;41245;45.384;20.390;2022-07-19T00:26:54;512.10;128.00
55365;DHT22;41245;45.384;20.390;2022-07-19T00:29:20;512.00;128.00
55365;DHT22;41245;45.384;20.390;2022-07-19T00:31:45;512.00;128.00
55365;DHT22;41245;45.384;20.390;2022-07-19T00:34:11;487.20;128.00
55365;DHT22;41245;45.384;20.390;2022-07-19T00:36:37;512.00;128.00
55365;DHT22;41245;45.384;20.390;2022-07-19T00:39:03;487.20;128.00
55365;DHT22;41245;45.384;20.390;2022-07-19T00:41:28;487.20;128.00
55365;DHT22;41245;45.384;20.390;2022-07-19T00:43:56;487.20;128.00
55365;DHT22;41245;45.384;20.390;2022-07-19T00:46:22;487.20;128.00
55365;DHT22;41245;45.384;20.390;2022-07-19T00:48:49;487.20;128.00
55365;DHT22;41245;45.384;20.390;2022-07-19T00:51:17;487.20;128.00
55365;DHT22;41245;45.384;20.390;2022-07-19T00:53:43;487.20;128.00
55365;DHT22;41245;45.384;20.390;2022-07-19T00:56:11;487.10;128.00
55365;DHT22;41245;45.384;20.390;2022-07-19T00:58:38;487.10;128.00
55365;DHT22;41245;45.384;20.390;2022-07-19T01:01:06;487.10;128.00
55365;DHT22;41245;45.384;20.390;2022-07-19T01:03:38;487.10;128.00
55365;DHT22;41245;45.384;20.390;2022-07-19T01:06:05;487.10;128.00
55365;DHT22;41245;45.384;20.390;2022-07-19T01:08:31;487.00;128.00
55365;DHT22;41245;45.384;20.390;2022-07-19T01:10:57;487.00;128.00
55365;DHT22;41245;45.384;20.390;2022-07-19T01:13:23;487.00;128.00
55365;DHT22;41245;45.384;20.390;2022-07-19T01:15:49;487.00;128.00
55365;DHT22;41245;45.384;20.390;2022-07-19T01:18:15;487.00;128.00
55365;DHT22;41245;45.384;20.390;2022-07-19T01:20:41;486.90;128.00
55365;DHT22;41245;45.384;20.390;2022-07-19T01:23:07;486.90;128.00
55365;DHT22;41245;45.384;20.390;2022-07-19T01:25:34;486.90;128.00
55365;DHT22;41245;45.384;20.390;2022-07-19T01:28:02;486.80;128.00
55365;DHT22;41245;45.384;20.390;2022-07-19T01:30:28;486.80;128.00
55365;DHT22;41245;45.384;20.390;2022-07-19T01:32:54;486.80;128.00
55365;DHT22;41245;45.384;20.390;2022-07-19T01:35:20;486.70;128.00
55365;DHT22;41245;45.384;20.390;2022-07-19T01:37:47;486.70;128.00
55365;DHT22;41245;45.384;20.390;2022-07-19T01:40:14;486.70;128.00
55365;DHT22;41245;45.384;20.390;2022-07-19T01:42:40;486.80;128.00
55365;DHT22;41245;45.384;20.390;2022-07-19T01:45:08;486.70;128.00
55365;DHT22;41245;45.384;20.390;2022-07-19T01:47:35;486.70;128.00
55365;DHT22;41245;45.384;20.390;2022-07-19T01:50:02;486.60;128.00
55365;DHT22;41245;45.384;20.390;2022-07-19T01:52:27;486.50;128.00
55365;DHT22;41245;45.384;20.390;2022-07-19T01:54:53;486.50;128.00
55365;DHT22;41245;45.384;20.390;2022-07-19T01:57:19;486.50;128.00
55365;DHT22;41245;45.384;20.390;2022-07-19T01:59:44;486.60;128.00
55365;DHT22;41245;45.384;20.390;2022-07-19T02:02:10;486.60;128.00
55365;DHT22;41245;45.384;20.390;2022-07-19T02:04:36;486.60;128.00
55365;DHT22;41245;45.384;20.390;2022-07-19T02:07:02;486.60;128.00
55365;DHT22;41245;45.384;20.390;2022-07-19T02:09:28;486.60;128.00
55365;DHT22;41245;45.384;20.390;2022-07-19T02:11:53;486.70;128.00
55365;DHT22;41245;45.384;20.390;2022-07-19T02:14:19;486.60;128.00
55365;DHT22;41245;45.384;20.390;2022-07-19T02:16:45;486.60;128.00
55365;DHT22;41245;45.384;20.390;2022-07-19T02:19:10;486.70;128.00
55365;DHT22;41245;45.384;20.390;2022-07-19T02:21:37;486.50;128.00
55365;DHT22;41245;45.384;20.390;2022-07-19T02:24:04;486.60;128.00
55365;DHT22;41245;45.384;20.390;2022-07-19T02:26:31;486.90;128.00
55365;DHT22;41245;45.384;20.390;2022-07-19T02:28:57;486.70;128.00
55365;DHT22;41245;45.384;20.390;2022-07-19T02:31:23;486.60;128.00
55365;DHT22;41245;45.384;20.390;2022-07-19T02:33:49;486.50;128.00
55365;DHT22;41245;45.384;20.390;2022-07-19T02:36:15;486.50;128.00
55365;DHT22;41245;45.384;20.390;2022-07-19T02:38:42;486.50;128.00
55365;DHT22;41245;45.384;20.390;2022-07-19T02:41:08;486.50;128.00
55365;DHT22;41245;45.384;20.390;2022-07-19T02:43:33;486.50;128.00
55365;DHT22;41245;45.384;20.390;2022-07-19T02:45:59;486.60;128.00
55365;DHT22;41245;45.384;20.390;2022-07-19T02:48:25;486.60;128.00
55365;DHT22;41245;45.384;20.390;2022-07-19T02:50:51;486.70;128.00
55365;DHT22;41245;45.384;20.390;2022-07-19T02:53:16;486.70;128.00
55365;DHT22;41245;45.384;20.390;2022-07-19T02:55:42;486.60;128.00
55365;DHT22;41245;45.384;20.390;2022-07-19T02:58:08;486.60;128.00
55365;DHT22;41245;45.384;20.390;2022-07-19T03:00:34;486.60;128.00
55365;DHT22;41245;45.384;20.390;2022-07-19T03:03:02;486.50;128.00
55365;DHT22;41245;45.384;20.390;2022-07-19T03:05:47;486.50;128.00
55365;DHT22;41245;45.384;20.390;2022-07-19T03:08:13;486.50;128.00
55365;DHT22;41245;45.384;20.390;2022-07-19T03:10:39;486.50;128.00
55365;DHT22;41245;45.384;20.390;2022-07-19T03:13:05;486.50;128.00
55365;DHT22;41245;45.384;20.390;2022-07-19T03:15:30;486.50;128.00
55365;DHT22;41245;45.384;20.390;2022-07-19T03:17:56;486.50;128.00
55365;DHT22;41245;45.384;20.390;2022-07-19T03:20:22;486.50;128.00
55365;DHT22;41245;45.384;20.390;2022-07-19T03:22:48;486.50;128.00
55365;DHT22;41245;45.384;20.390;2022-07-19T03:25:14;486.50;128.00
55365;DHT22;41245;45.384;20.390;2022-07-19T03:27:40;486.50;128.00
55365;DHT22;41245;45.384;20.390;2022-07-19T03:30:06;486.60;128.00
55365;DHT22;41245;45.384;20.390;2022-07-19T03:32:32;486.70;128.00
55365;DHT22;41245;45.384;20.390;2022-07-19T03:34:58;486.70;128.00
55365;DHT22;41245;45.384;20.390;2022-07-19T03:37:23;486.70;128.00
55365;DHT22;41245;45.384;20.390;2022-07-19T03:39:49;486.50;128.00
55365;DHT22;41245;45.384;20.390;2022-07-19T03:42:15;486.50;128.00
55365;DHT22;41245;45.384;20.390;2022-07-19T03:44:40;486.50;128.00
55365;DHT22;41245;45.384;20.390;2022-07-19T03:47:06;486.70;128.00
55365;DHT22;41245;45.384;20.390;2022-07-19T03:49:32;486.70;128.00
55365;DHT22;41245;45.384;20.390;2022-07-19T03:51:57;486.80;128.00
55365;DHT22;41245;45.384;20.390;2022-07-19T03:54:23;486.90;128.00
55365;DHT22;41245;45.384;20.390;2022-07-19T03:56:49;487.10;128.00
55365;DHT22;41245;45.384;20.390;2022-07-19T03:59:15;512.00;128.00
55365;DHT22;41245;45.384;20.390;2022-07-19T04:01:40;512.90;128.00
55365;DHT22;41245;45.384;20.390;2022-07-19T04:04:06;563.90;128.00
55365;DHT22;41245;45.384;20.390;2022-07-19T04:06:32;614.70;128.00
55365;DHT22;41245;45.384;20.390;2022-07-19T04:08:58;640.50;128.00
55365;DHT22;41245;45.384;20.390;2022-07-19T04:11:24;666.30;153.60
55365;DHT22;41245;45.384;20.390;2022-07-19T04:13:50;692.10;153.60
55365;DHT22;41245;45.384;20.390;2022-07-19T04:16:15;742.40;204.80
55365;DHT22;41245;45.384;20.390;2022-07-19T04:18:41;743.30;204.80
55365;DHT22;41245;45.384;20.390;2022-07-19T04:21:07;793.60;230.40
55365;DHT22;41245;45.384;20.390;2022-07-19T04:23:33;794.40;230.40
55365;DHT22;41245;45.384;20.390;2022-07-19T04:25:59;819.70;230.40
55365;DHT22;41245;45.384;20.390;2022-07-19T04:28:24;845.20;256.00
55365;DHT22;41245;45.384;20.390;2022-07-19T04:30:50;845.70;256.00
55365;DHT22;41245;45.384;20.390;2022-07-19T04:33:17;870.80;435.20
55365;DHT22;41245;45.384;20.390;2022-07-19T04:35:43;871.20;486.40
55365;DHT22;41245;45.384;20.390;2022-07-19T04:38:10;896.10;486.40
55365;DHT22;41245;45.384;20.390;2022-07-19T04:40:36;896.10;460.80
55365;DHT22;41245;45.384;20.390;2022-07-19T04:43:02;871.30;486.40
55365;DHT22;41245;45.384;20.390;2022-07-19T04:45:28;871.10;409.60
55365;DHT22;41245;45.384;20.390;2022-07-19T04:47:53;896.10;460.80
55365;DHT22;41245;45.384;20.390;2022-07-19T04:50:20;896.20;435.20
55365;DHT22;41245;45.384;20.390;2022-07-19T04:52:45;871.30;460.80
55365;DHT22;41245;45.384;20.390;2022-07-19T04:55:11;871.10;435.20
55365;DHT22;41245;45.384;20.390;2022-07-19T04:57:37;870.70;409.60
55365;DHT22;41245;45.384;20.390;2022-07-19T05:00:12;870.50;409.60
55365;DHT22;41245;45.384;20.390;2022-07-19T05:02:38;845.60;435.20
55365;DHT22;41245;45.384;20.390;2022-07-19T05:05:04;845.60;409.60
55365;DHT22;41245;45.384;20.390;2022-07-19T05:07:31;845.30;460.80
55365;DHT22;41245;45.384;20.390;2022-07-19T05:09:56;845.50;588.80
55365;DHT22;41245;45.384;20.390;2022-07-19T05:12:22;845.20;537.60
55365;DHT22;41245;45.384;20.390;2022-07-19T05:14:48;845.20;588.80
55365;DHT22;41245;45.384;20.390;2022-07-19T05:17:14;845.30;563.20
55365;DHT22;41245;45.384;20.390;2022-07-19T05:19:40;845.50;640.00
55365;DHT22;41245;45.384;20.390;2022-07-19T05:22:06;870.50;691.20
55365;DHT22;41245;45.384;20.390;2022-07-19T05:24:32;870.70;768.00
55365;DHT22;41245;45.384;20.390;2022-07-19T05:26:57;870.90;768.00
55365;DHT22;41245;45.384;20.390;2022-07-19T05:29:23;870.80;742.40
55365;DHT22;41245;45.384;20.390;2022-07-19T05:31:49;871.00;819.20
55365;DHT22;41245;45.384;20.390;2022-07-19T05:34:14;871.20;742.40
55365;DHT22;41245;45.384;20.390;2022-07-19T05:36:41;896.40;793.60
55365;DHT22;41245;45.384;20.390;2022-07-19T05:39:07;922.40;896.00
55365;DHT22;41245;45.384;20.390;2022-07-19T05:41:33;948.10;281.60
55365;DHT22;41245;45.384;20.390;2022-07-19T05:43:59;973.20;307.20
55365;DHT22;41245;45.384;20.390;2022-07-19T05:46:24;972.90;307.20
55365;DHT22;41245;45.384;20.390;2022-07-19T05:48:50;947.60;281.60
55365;DHT22;41245;45.384;20.390;2022-07-19T05:51:16;948.00;281.60
55365;DHT22;41245;45.384;20.390;2022-07-19T05:53:41;947.70;281.60
55365;DHT22;41245;45.384;20.390;2022-07-19T05:56:08;947.80;281.60
55365;DHT22;41245;45.384;20.390;2022-07-19T05:58:34;947.50;281.60
55365;DHT22;41245;45.384;20.390;2022-07-19T06:00:59;973.20;307.20
55365;DHT22;41245;45.384;20.390;2022-07-19T06:03:48;999.10;332.80
55365;DHT22;41245;45.384;20.390;2022-07-19T06:06:14;1024.80;332.80
55365;DHT22;41245;45.384;20.390;2022-07-19T06:08:41;1100.80;384.00
55365;DHT22;41245;45.384;20.390;2022-07-19T06:11:07;1126.70;409.60
55365;DHT22;41245;45.384;20.390;2022-07-19T06:13:34;1075.20;358.40
55365;DHT22;41245;45.384;20.390;2022-07-19T06:16:00;1101.60;384.00
55365;DHT22;41245;45.384;20.390;2022-07-19T06:18:25;1126.70;409.60
55365;DHT22;41245;45.384;20.390;2022-07-19T06:20:51;1076.00;358.40
55365;DHT22;41245;45.384;20.390;2022-07-19T06:23:17;1076.00;358.40
55365;DHT22;41245;45.384;20.390;2022-07-19T06:25:42;1101.40;384.00
55365;DHT22;41245;45.384;20.390;2022-07-19T06:28:08;1126.40;409.60
55365;DHT22;41245;45.384;20.390;2022-07-19T06:30:34;1101.40;384.00
55365;DHT22;41245;45.384;20.390;2022-07-19T06:32:59;1050.40;358.40
55365;DHT22;41245;45.384;20.390;2022-07-19T06:35:25;973.10;307.20
55365;DHT22;41245;45.384;20.390;2022-07-19T06:37:51;921.70;281.60
55365;DHT22;41245;45.384;20.390;2022-07-19T06:40:17;845.60;256.00
55365;DHT22;41245;45.384;20.390;2022-07-19T06:42:42;793.80;230.40
55365;DHT22;41245;45.384;20.390;2022-07-19T06:45:08;793.70;844.80
55365;DHT22;41245;45.384;20.390;2022-07-19T06:47:34;768.30;614.40
55365;DHT22;41245;45.384;20.390;2022-07-19T06:50:00;742.90;563.20
55365;DHT22;41245;45.384;20.390;2022-07-19T06:52:26;717.60;460.80
55365;DHT22;41245;45.384;20.390;2022-07-19T06:54:52;717.50;588.80
55365;DHT22;41245;45.384;20.390;2022-07-19T06:57:18;716.90;409.60
55365;DHT22;41245;45.384;20.390;2022-07-19T06:59:43;716.80;358.40
55365;DHT22;41245;45.384;20.390;2022-07-19T07:02:09;716.90;614.40
55365;DHT22;41245;45.384;20.390;2022-07-19T07:04:35;716.80;384.00
55365;DHT22;41245;45.384;20.390;2022-07-19T07:07:01;716.80;460.80
55365;DHT22;41245;45.384;20.390;2022-07-19T07:09:27;692.10;435.20
55365;DHT22;41245;45.384;20.390;2022-07-19T07:11:52;716.90;435.20
55365;DHT22;41245;45.384;20.390;2022-07-19T07:14:18;716.80;435.20
55365;DHT22;41245;45.384;20.390;2022-07-19T07:16:44;716.90;435.20
55365;DHT22;41245;45.384;20.390;2022-07-19T07:19:10;716.90;460.80
55365;DHT22;41245;45.384;20.390;2022-07-19T07:21:35;717.00;460.80
55365;DHT22;41245;45.384;20.390;2022-07-19T07:24:02;716.80;460.80
55365;DHT22;41245;45.384;20.390;2022-07-19T07:26:28;716.90;435.20
55365;DHT22;41245;45.384;20.390;2022-07-19T07:28:53;717.10;409.60
55365;DHT22;41245;45.384;20.390;2022-07-19T07:31:19;717.10;409.60
55365;DHT22;41245;45.384;20.390;2022-07-19T07:33:45;717.20;435.20
55365;DHT22;41245;45.384;20.390;2022-07-19T07:36:11;717.30;358.40
55365;DHT22;41245;45.384;20.390;2022-07-19T07:38:37;717.40;460.80
55365;DHT22;41245;45.384;20.390;2022-07-19T07:41:06;717.50;435.20
55365;DHT22;41245;45.384;20.390;2022-07-19T07:43:31;717.50;460.80
55365;DHT22;41245;45.384;20.390;2022-07-19T07:45:57;717.50;486.40
55365;DHT22;41245;45.384;20.390;2022-07-19T07:48:23;717.60;486.40
55365;DHT22;41245;45.384;20.390;2022-07-19T07:50:49;742.40;512.00
55365;DHT22;41245;45.384;20.390;2022-07-19T07:53:15;742.50;460.80
55365;DHT22;41245;45.384;20.390;2022-07-19T07:55:41;742.70;512.00
55365;DHT22;41245;45.384;20.390;2022-07-19T07:58:11;742.70;537.60
55365;DHT22;41245;45.384;20.390;2022-07-19T08:00:38;742.70;563.20
55365;DHT22;41245;45.384;20.390;2022-07-19T08:03:04;742.80;512.00
55365;DHT22;41245;45.384;20.390;2022-07-19T08:05:30;742.80;537.60
55365;DHT22;41245;45.384;20.390;2022-07-19T08:07:57;742.80;588.80
55365;DHT22;41245;45.384;20.390;2022-07-19T08:10:26;742.90;665.60
55365;DHT22;41245;45.384;20.390;2022-07-19T08:12:52;742.90;640.00
55365;DHT22;41245;45.384;20.390;2022-07-19T08:15:19;743.00;588.80
55365;DHT22;41245;45.384;20.390;2022-07-19T08:17:45;743.00;640.00
55365;DHT22;41245;45.384;20.390;2022-07-19T08:20:11;743.00;640.00
55365;DHT22;41245;45.384;20.390;2022-07-19T08:22:37;743.00;486.40
55365;DHT22;41245;45.384;20.390;2022-07-19T08:25:03;743.10;486.40
55365;DHT22;41245;45.384;20.390;2022-07-19T08:27:29;743.30;716.80
55365;DHT22;41245;45.384;20.390;2022-07-19T08:29:55;743.30;768.00
55365;DHT22;41245;45.384;20.390;2022-07-19T08:32:21;768.00;588.80
55365;DHT22;41245;45.384;20.390;2022-07-19T08:34:46;768.00;588.80
55365;DHT22;41245;45.384;20.390;2022-07-19T08:37:12;768.00;691.20
55365;DHT22;41245;45.384;20.390;2022-07-19T08:39:38;768.00;793.60
55365;DHT22;41245;45.384;20.390;2022-07-19T08:42:03;768.00;537.60
55365;DHT22;41245;45.384;20.390;2022-07-19T08:44:29;743.30;691.20
55365;DHT22;41245;45.384;20.390;2022-07-19T08:46:55;768.00;793.60
55365;DHT22;41245;45.384;20.390;2022-07-19T08:49:22;768.30;793.60
55365;DHT22;41245;45.384;20.390;2022-07-19T08:51:48;768.40;563.20
55365;DHT22;41245;45.384;20.390;2022-07-19T08:54:14;768.50;742.40
55365;DHT22;41245;45.384;20.390;2022-07-19T08:56:40;768.50;691.20
55365;DHT22;41245;45.384;20.390;2022-07-19T08:59:24;768.60;742.40
55365;DHT22;41245;45.384;20.390;2022-07-19T09:01:51;768.80;691.20
55365;DHT22;41245;45.384;20.390;2022-07-19T09:04:21;768.50;742.40
55365;DHT22;41245;45.384;20.390;2022-07-19T09:06:52;768.80;716.80
55365;DHT22;41245;45.384;20.390;2022-07-19T09:09:26;768.50;665.60
55365;DHT22;41245;45.384;20.390;2022-07-19T09:11:53;768.80;793.60
55365;DHT22;41245;45.384;20.390;2022-07-19T09:14:24;793.60;742.40
55365;DHT22;41245;45.384;20.390;2022-07-19T09:19:24;793.60;716.80
55365;DHT22;41245;45.384;20.390;2022-07-19T09:22:01;793.60;665.60
55365;DHT22;41245;45.384;20.390;2022-07-19T09:24:28;768.80;588.80
55365;DHT22;41245;45.384;20.390;2022-07-19T09:29:24;768.90;742.40
55365;DHT22;41245;45.384;20.390;2022-07-19T09:32:04;793.60;768.00
55365;DHT22;41245;45.384;20.390;2022-07-19T09:37:11;793.80;819.20
55365;DHT22;41245;45.384;20.390;2022-07-19T09:39:38;793.80;742.40
55365;DHT22;41245;45.384;20.390;2022-07-19T09:42:08;793.90;716.80
55365;DHT22;41245;45.384;20.390;2022-07-19T09:44:34;794.00;230.40
55365;DHT22;41245;45.384;20.390;2022-07-19T09:47:00;794.10;230.40
55365;DHT22;41245;45.384;20.390;2022-07-19T09:49:26;794.10;230.40
55365;DHT22;41245;45.384;20.390;2022-07-19T09:51:53;794.30;230.40
55365;DHT22;41245;45.384;20.390;2022-07-19T09:54:25;794.40;230.40
55365;DHT22;41245;45.384;20.390;2022-07-19T09:56:52;794.40;230.40
55365;DHT22;41245;45.384;20.390;2022-07-19T09:59:20;794.40;230.40
55365;DHT22;41245;45.384;20.390;2022-07-19T10:01:47;794.40;230.40
55365;DHT22;41245;45.384;20.390;2022-07-19T10:04:19;819.20;230.40
55365;DHT22;41245;45.384;20.390;2022-07-19T10:06:46;819.20;230.40
55365;DHT22;41245;45.384;20.390;2022-07-19T10:09:16;819.20;230.40
55365;DHT22;41245;45.384;20.390;2022-07-19T10:11:42;819.20;230.40
55365;DHT22;41245;45.384;20.390;2022-07-19T10:14:09;794.30;230.40
55365;DHT22;41245;45.384;20.390;2022-07-19T10:21:48;819.30;230.40
55365;DHT22;41245;45.384;20.390;2022-07-19T10:32:47;819.50;230.40
55365;DHT22;41245;45.384;20.390;2022-07-19T10:35:31;819.50;230.40
55365;DHT22;41245;45.384;20.390;2022-07-19T10:40:50;819.50;230.40
55365;DHT22;41245;45.384;20.390;2022-07-19T10:43:20;819.50;230.40
55365;DHT22;41245;45.384;20.390;2022-07-19T10:51:01;819.50;230.40
55365;DHT22;41245;45.384;20.390;2022-07-19T10:58:50;819.40;230.40
55365;DHT22;41245;45.384;20.390;2022-07-19T11:01:18;819.60;230.40
55365;DHT22;41245;45.384;20.390;2022-07-19T11:03:48;819.70;230.40
55365;DHT22;41245;45.384;20.390;2022-07-19T11:06:25;819.70;230.40
55365;DHT22;41245;45.384;20.390;2022-07-19T11:08:58;819.70;230.40
55365;DHT22;41245;45.384;20.390;2022-07-19T11:11:25;819.70;230.40
55365;DHT22;41245;45.384;20.390;2022-07-19T11:13:55;819.70;230.40
55365;DHT22;41245;45.384;20.390;2022-07-19T11:16:27;819.70;230.40
55365;DHT22;41245;45.384;20.390;2022-07-19T11:19:03;819.70;230.40
55365;DHT22;41245;45.384;20.390;2022-07-19T11:21:35;819.60;230.40
55365;DHT22;41245;45.384;20.390;2022-07-19T11:24:03;819.70;230.40
55365;DHT22;41245;45.384;20.390;2022-07-19T11:26:35;819.60;230.40
55365;DHT22;41245;45.384;20.390;2022-07-19T11:29:02;819.70;230.40
55365;DHT22;41245;45.384;20.390;2022-07-19T11:31:28;819.70;230.40
55365;DHT22;41245;45.384;20.390;2022-07-19T11:33:55;819.70;230.40
55365;DHT22;41245;45.384;20.390;2022-07-19T11:36:25;819.70;230.40
55365;DHT22;41245;45.384;20.390;2022-07-19T11:38:54;819.70;230.40
55365;DHT22;41245;45.384;20.390;2022-07-19T11:41:22;819.70;230.40
55365;DHT22;41245;45.384;20.390;2022-07-19T11:43:58;819.70;230.40
55365;DHT22;41245;45.384;20.390;2022-07-19T11:46:37;819.70;230.40
55365;DHT22;41245;45.384;20.390;2022-07-19T11:49:05;819.60;230.40
55365;DHT22;41245;45.384;20.390;2022-07-19T11:51:32;819.70;230.40
55365;DHT22;41245;45.384;20.390;2022-07-19T11:53:59;819.70;230.40
55365;DHT22;41245;45.384;20.390;2022-07-19T11:56:28;819.90;230.40
55365;DHT22;41245;45.384;20.390;2022-07-19T11:58:56;820.00;230.40
55365;DHT22;41245;45.384;20.390;2022-07-19T12:03:57;819.60;230.40
55365;DHT22;41245;45.384;20.390;2022-07-19T12:09:40;819.90;230.40
55365;DHT22;41245;45.384;20.390;2022-07-19T12:12:13;820.00;230.40
55365;DHT22;41245;45.384;20.390;2022-07-19T12:14:39;820.00;230.40
55365;DHT22;41245;45.384;20.390;2022-07-19T12:17:16;844.80;256.00
55365;DHT22;41245;45.384;20.390;2022-07-19T12:19:52;844.80;256.00
55365;DHT22;41245;45.384;20.390;2022-07-19T12:24:54;844.90;256.00
55365;DHT22;41245;45.384;20.390;2022-07-19T12:27:20;845.00;256.00
55365;DHT22;41245;45.384;20.390;2022-07-19T12:29:47;845.00;256.00
55365;DHT22;41245;45.384;20.390;2022-07-19T12:32:32;845.00;256.00
55365;DHT22;41245;45.384;20.390;2022-07-19T12:35:13;845.10;256.00
55365;DHT22;41245;45.384;20.390;2022-07-19T12:37:43;845.10;256.00
55365;DHT22;41245;45.384;20.390;2022-07-19T12:40:10;844.90;256.00
55365;DHT22;41245;45.384;20.390;2022-07-19T12:45:08;844.80;256.00
55365;DHT22;41245;45.384;20.390;2022-07-19T12:47:34;844.80;256.00
55365;DHT22;41245;45.384;20.390;2022-07-19T12:50:00;844.80;256.00
55365;DHT22;41245;45.384;20.390;2022-07-19T12:52:26;820.10;230.40
55365;DHT22;41245;45.384;20.390;2022-07-19T12:54:51;844.80;256.00
55365;DHT22;41245;45.384;20.390;2022-07-19T12:57:17;820.10;230.40
55365;DHT22;41245;45.384;20.390;2022-07-19T12:59:43;844.80;256.00
55365;DHT22;41245;45.384;20.390;2022-07-19T13:02:13;844.80;256.00
55365;DHT22;41245;45.384;20.390;2022-07-19T13:04:40;820.10;230.40
55365;DHT22;41245;45.384;20.390;2022-07-19T13:07:08;820.00;230.40
55365;DHT22;41245;45.384;20.390;2022-07-19T13:09:36;820.10;230.40
55365;DHT22;41245;45.384;20.390;2022-07-19T13:12:03;820.10;230.40
55365;DHT22;41245;45.384;20.390;2022-07-19T13:14:29;844.80;256.00
55365;DHT22;41245;45.384;20.390;2022-07-19T13:16:55;844.80;256.00
55365;DHT22;41245;45.384;20.390;2022-07-19T13:19:21;844.90;256.00
55365;DHT22;41245;45.384;20.390;2022-07-19T13:21:47;844.80;256.00
55365;DHT22;41245;45.384;20.390;2022-07-19T13:24:13;844.80;256.00
55365;DHT22;41245;45.384;20.390;2022-07-19T13:26:39;844.80;256.00
55365;DHT22;41245;45.384;20.390;2022-07-19T13:29:05;844.80;256.00
55365;DHT22;41245;45.384;20.390;2022-07-19T13:31:31;844.90;256.00
55365;DHT22;41245;45.384;20.390;2022-07-19T13:33:57;844.90;256.00
55365;DHT22;41245;45.384;20.390;2022-07-19T13:36:23;844.90;256.00
55365;DHT22;41245;45.384;20.390;2022-07-19T13:38:49;844.90;256.00
55365;DHT22;41245;45.384;20.390;2022-07-19T13:41:15;844.80;256.00
55365;DHT22;41245;45.384;20.390;2022-07-19T13:43:43;844.90;256.00
55365;DHT22;41245;45.384;20.390;2022-07-19T13:46:09;844.90;256.00
55365;DHT22;41245;45.384;20.390;2022-07-19T13:48:35;844.90;256.00
55365;DHT22;41245;45.384;20.390;2022-07-19T13:51:01;845.00;256.00
55365;DHT22;41245;45.384;20.390;2022-07-19T13:53:27;844.90;256.00
55365;DHT22;41245;45.384;20.390;2022-07-19T13:55:52;845.00;256.00
55365;DHT22;41245;45.384;20.390;2022-07-19T13:58:18;845.00;256.00
55365;DHT22;41245;45.384;20.390;2022-07-19T14:00:44;845.00;256.00
55365;DHT22;41245;45.384;20.390;2022-07-19T14:03:12;844.90;256.00
55365;DHT22;41245;45.384;20.390;2022-07-19T14:05:39;844.80;256.00
55365;DHT22;41245;45.384;20.390;2022-07-19T14:08:05;844.80;256.00
55365;DHT22;41245;45.384;20.390;2022-07-19T14:10:30;844.80;256.00
55365;DHT22;41245;45.384;20.390;2022-07-19T14:12:56;844.90;256.00
55365;DHT22;41245;45.384;20.390;2022-07-19T14:15:22;844.80;256.00
55365;DHT22;41245;45.384;20.390;2022-07-19T14:17:48;844.80;256.00
55365;DHT22;41245;45.384;20.390;2022-07-19T14:20:13;844.80;256.00
55365;DHT22;41245;45.384;20.390;2022-07-19T14:22:39;844.80;256.00
55365;DHT22;41245;45.384;20.390;2022-07-19T14:25:05;844.80;256.00
55365;DHT22;41245;45.384;20.390;2022-07-19T14:27:31;820.10;230.40
55365;DHT22;41245;45.384;20.390;2022-07-19T14:29:57;844.80;256.00
55365;DHT22;41245;45.384;20.390;2022-07-19T14:32:23;820.10;230.40
55365;DHT22;41245;45.384;20.390;2022-07-19T14:34:48;844.80;256.00
55365;DHT22;41245;45.384;20.390;2022-07-19T14:37:14;844.80;256.00
55365;DHT22;41245;45.384;20.390;2022-07-19T14:39:40;844.80;256.00
55365;DHT22;41245;45.384;20.390;2022-07-19T14:42:06;844.80;256.00
55365;DHT22;41245;45.384;20.390;2022-07-19T14:44:32;844.80;256.00
55365;DHT22;41245;45.384;20.390;2022-07-19T14:46:58;844.80;256.00
55365;DHT22;41245;45.384;20.390;2022-07-19T14:49:24;844.80;256.00
55365;DHT22;41245;45.384;20.390;2022-07-19T14:51:50;844.80;256.00
55365;DHT22;41245;45.384;20.390;2022-07-19T14:54:16;844.80;256.00
55365;DHT22;41245;45.384;20.390;2022-07-19T14:56:42;844.80;256.00
55365;DHT22;41245;45.384;20.390;2022-07-19T14:59:07;844.80;256.00
55365;DHT22;41245;45.384;20.390;2022-07-19T15:01:33;844.80;256.00
55365;DHT22;41245;45.384;20.390;2022-07-19T15:03:59;820.10;230.40
55365;DHT22;41245;45.384;20.390;2022-07-19T15:06:25;820.10;230.40
55365;DHT22;41245;45.384;20.390;2022-07-19T15:08:50;844.80;256.00
55365;DHT22;41245;45.384;20.390;2022-07-19T15:11:16;844.80;256.00
55365;DHT22;41245;45.384;20.390;2022-07-19T15:13:43;844.80;256.00
55365;DHT22;41245;45.384;20.390;2022-07-19T15:16:09;820.10;230.40
55365;DHT22;41245;45.384;20.390;2022-07-19T15:18:34;820.10;230.40
55365;DHT22;41245;45.384;20.390;2022-07-19T15:21:00;820.10;230.40
55365;DHT22;41245;45.384;20.390;2022-07-19T15:23:26;820.10;230.40
55365;DHT22;41245;45.384;20.390;2022-07-19T15:25:52;820.00;230.40
55365;DHT22;41245;45.384;20.390;2022-07-19T15:28:18;820.00;230.40
55365;DHT22;41245;45.384;20.390;2022-07-19T15:30:43;820.00;230.40